Time;durP1;ratioP1;P1;durP2;ratioP2;P2;SDS_P1;SDS_P2;PMS_P1;PMS_P2;Temp;Humidity;BMP_temperature;BMP_pressure;BME280_temperature;BME280_humidity;BME280_pressure;Samples;Min_cycle;Max_cycle;Signal;HPM_P1;HPM_P2
2023/05/05 00:01:23;;;;;;;6.47;6.07;;;;;;;15.81;56.39;100703.75;7837537;18;19990;-70
2023/05/05 00:03:49;;;;;;;6.45;6.05;;;;;;;16.15;56.34;100770.06;7787204;18;20080;-70
2023/05/05 00:06:16;;;;;;;8.23;6.45;;;;;;;16.08;56.23;100766.19;7838220;18;20463;-71
2023/05/05 00:08:43;;;;;;;6.65;6.00;;;;;;;15.77;56.36;100728.75;7748843;18;20026;-70
2023/05/05 00:11:10;;;;;;;7.10;6.47;;;;;;;15.97;57.27;100777.56;7795203;18;20001;-70
2023/05/05 00:13:37;;;;;;;6.72;6.30;;;;;;;15.92;57.40;100777.91;7789590;18;20012;-70
2023/05/05 00:16:04;;;;;;;6.40;6.00;;;;;;;15.73;57.38;100769.63;7838319;18;20073;-70
2023/05/05 00:18:32;;;;;;;6.63;6.22;;;;;;;15.69;57.39;100758.38;7789082;18;20439;-71
2023/05/05 00:20:59;;;;;;;6.78;6.35;;;;;;;15.27;57.42;100688.28;7794470;18;20010;-70
2023/05/05 00:23:26;;;;;;;6.75;6.20;;;;;;;15.69;57.13;100749.59;7746626;18;19998;-71
2023/05/05 00:25:52;;;;;;;6.90;6.38;;;;;;;15.84;57.42;100776.78;7837466;18;20355;-70
2023/05/05 00:28:19;;;;;;;6.65;6.25;;;;;;;15.86;57.86;100786.28;7788451;18;20072;-70
2023/05/05 00:30:49;;;;;;;6.80;6.30;;;;;;;15.88;57.18;100794.97;7837578;18;20049;-71
2023/05/05 00:33:16;;;;;;;6.72;6.32;;;;;;;15.90;57.37;100808.09;7746766;18;20020;-70
2023/05/05 00:35:45;;;;;;;7.13;6.53;;;;;;;15.89;57.72;100798.44;7837405;18;20006;-70
2023/05/05 00:38:12;;;;;;;6.90;6.40;;;;;;;15.89;57.75;100798.44;7747833;18;20057;-70
2023/05/05 00:40:38;;;;;;;8.73;6.10;;;;;;;15.02;57.72;100684.75;7837512;18;20024;-72
2023/05/05 00:43:06;;;;;;;6.60;6.20;;;;;;;15.54;57.52;100749.75;7789450;18;20049;-69
2023/05/05 00:45:35;;;;;;;6.78;6.20;;;;;;;15.77;57.88;100804.63;7837110;18;19994;-69
2023/05/05 00:48:03;;;;;;;6.50;6.10;;;;;;;15.40;57.87;100749.06;7789768;18;20001;-69
2023/05/05 00:50:36;;;;;;;6.88;6.40;;;;;;;15.62;59.03;100798.63;7796627;18;20768;-69
2023/05/05 00:53:05;;;;;;;6.97;6.47;;;;;;;15.27;59.25;100784.28;7784867;18;20187;-69
2023/05/05 00:55:33;;;;;;;6.65;6.15;;;;;;;15.49;59.23;100819.81;7837194;18;20545;-70
2023/05/05 00:58:04;;;;;;;7.25;6.65;;;;;;;15.32;59.88;100798.03;7748243;18;20009;-69
2023/05/05 01:00:33;;;;;;;6.90;6.40;;;;;;;14.87;59.81;100742.16;7837992;18;19998;-69
2023/05/05 01:03:03;;;;;;;6.43;6.00;;;;;;;15.21;59.67;100815.63;7788514;18;20018;-69
2023/05/05 01:05:42;;;;;;;6.75;6.28;;;;;;;15.12;60.41;100827.69;7837588;18;20006;-69
2023/05/05 01:08:28;;;;;;;7.05;6.13;;;;;;;14.40;61.56;100746.22;7790656;18;20090;-70
2023/05/05 01:11:01;;;;;;;6.10;5.75;;;;;;;14.93;61.82;100831.59;7837726;18;20005;-71
2023/05/05 01:13:48;;;;;;;7.53;6.93;;;;;;;14.94;62.01;100837.72;7749802;18;20080;-70
2023/05/05 01:16:28;;;;;;;6.50;6.10;;;;;;;14.91;62.11;100833.50;7798265;18;19998;-70
2023/05/05 01:19:25;;;;;;;6.63;6.18;;;;;;;14.89;62.37;100837.19;7748238;18;20001;-71
2023/05/05 01:22:01;;;;;;;7.05;6.55;;;;;;;14.39;62.04;100791.22;7818537;18;20003;-71
2023/05/05 01:25:02;;;;;;;6.75;6.15;;;;;;;14.75;62.62;100832.81;7739955;18;20005;-71
2023/05/05 01:27:47;;;;;;;6.30;5.80;;;;;;;14.69;62.07;100831.47;7749708;18;20057;-69
2023/05/05 01:30:25;;;;;;;6.28;5.88;;;;;;;14.62;62.90;100829.34;7791552;18;19998;-69
2023/05/05 01:32:56;;;;;;;6.90;6.40;;;;;;;14.53;62.84;100836.91;7804492;18;20009;-70
2023/05/05 01:35:31;;;;;;;6.50;6.10;;;;;;;14.43;64.49;100856.06;7792925;18;20002;-69
2023/05/05 01:38:13;;;;;;;7.22;6.72;;;;;;;14.34;64.70;100853.09;7792100;18;20004;-70
2023/05/05 01:40:49;;;;;;;6.93;6.43;;;;;;;14.09;65.35;100837.16;7790462;18;20520;-69
2023/05/05 01:43:21;;;;;;;6.97;6.47;;;;;;;13.81;65.51;100804.66;7791629;18;20694;-70
2023/05/05 01:45:48;;;;;;;7.10;6.50;;;;;;;13.95;65.81;100833.63;7749094;18;20009;-71
2023/05/05 01:48:19;;;;;;;6.95;6.45;;;;;;;13.99;66.95;100862.44;7790628;18;19998;-70
2023/05/05 01:51:00;;;;;;;9.50;7.00;;;;;;;13.93;66.93;100876.88;7791081;18;20541;-71
2023/05/05 01:53:30;;;;;;;6.88;6.40;;;;;;;13.51;67.75;100824.09;7785515;18;20006;-70
2023/05/05 01:55:57;;;;;;;6.80;6.30;;;;;;;13.88;67.98;100892.16;7791108;18;20018;-70
2023/05/05 01:58:25;;;;;;;6.90;6.32;;;;;;;13.81;68.15;100902.25;7790418;18;20031;-70
2023/05/05 02:00:55;;;;;;;6.50;6.03;;;;;;;13.74;69.51;100908.84;7789819;18;20066;-70
2023/05/05 02:03:24;;;;;;;7.10;6.50;;;;;;;13.36;70.41;100869.84;7789336;18;19998;-68
2023/05/05 02:05:56;;;;;;;6.40;6.00;;;;;;;13.54;71.29;100912.72;7750336;18;20100;-70
2023/05/05 02:08:24;;;;;;;6.25;5.85;;;;;;;13.57;71.99;100942.38;7790415;18;20001;-69
2023/05/05 02:11:07;;;;;;;6.50;6.10;;;;;;;13.49;72.31;100949.91;7790094;18;19998;-69
2023/05/05 02:13:35;;;;;;;12.40;6.70;;;;;;;13.23;73.23;100921.59;7788945;18;20534;-71
2023/05/05 02:16:07;;;;;;;6.30;5.80;;;;;;;13.37;74.25;100974.38;7789409;18;20002;-70
2023/05/05 02:18:35;;;;;;;7.03;5.85;;;;;;;13.35;74.79;100971.00;7788778;18;20002;-70
2023/05/05 02:21:02;;;;;;;6.13;5.70;;;;;;;12.82;74.51;100888.00;7788579;18;20002;-69
2023/05/05 02:23:29;;;;;;;6.07;5.68;;;;;;;13.28;75.00;100966.97;7788269;18;20048;-69
2023/05/05 02:26:04;;;;;;;7.53;5.80;;;;;;;13.23;74.87;100969.03;7789187;18;20002;-71
2023/05/05 02:28:54;;;;;;;7.07;6.57;;;;;;;13.13;76.52;100981.91;7787386;18;20117;-70
2023/05/05 02:31:22;;;;;;;6.60;6.00;;;;;;;12.95;77.35;100970.66;7748904;18;20005;-70
2023/05/05 02:33:50;;;;;;;6.65;6.05;;;;;;;12.70;78.06;100935.16;7787948;18;20009;-71
2023/05/05 02:36:20;;;;;;;6.95;6.28;;;;;;;13.05;79.08;101002.56;7789198;18;20025;-71
2023/05/05 02:38:56;;;;;;;6.38;5.88;;;;;;;13.07;78.91;100998.91;7788053;18;20599;-70
2023/05/05 02:41:25;;;;;;;6.30;5.80;;;;;;;13.12;79.12;100999.47;7789184;18;20065;-70
2023/05/05 02:43:54;;;;;;;7.30;6.70;;;;;;;13.15;79.26;100993.22;7785900;18;20057;-72
2023/05/05 02:46:21;;;;;;;6.70;6.20;;;;;;;13.07;79.59;100985.75;7791084;18;20069;-71
2023/05/05 02:48:47;;;;;;;6.75;6.15;;;;;;;12.89;79.46;100947.28;7788734;18;20009;-71
2023/05/05 02:51:16;;;;;;;7.00;6.40;;;;;;;13.23;79.63;101000.66;7749968;18;20052;-71
2023/05/05 02:53:43;;;;;;;6.53;6.00;;;;;;;13.27;79.70;101004.78;7788382;18;20005;-71
2023/05/05 02:56:21;;;;;;;6.07;5.78;;;;;;;13.21;79.69;100989.34;7788642;18;20534;-71
2023/05/05 02:59:01;;;;;;;6.50;5.97;;;;;;;13.00;79.67;100986.19;7791869;18;20637;-70
2023/05/05 03:01:39;;;;;;;6.88;6.32;;;;;;;12.94;79.70;100982.94;7792679;18;20526;-71
2023/05/05 03:04:22;;;;;;;6.80;6.30;;;;;;;13.08;79.53;100992.69;7794762;18;20499;-72
2023/05/05 03:06:58;;;;;;;6.93;6.35;;;;;;;13.09;79.37;100985.63;7795876;18;20015;-71
2023/05/05 03:09:42;;;;;;;6.20;5.72;;;;;;;12.80;79.82;100942.56;7790489;18;20178;-71
2023/05/05 03:12:12;;;;;;;7.30;6.70;;;;;;;13.08;79.96;101007.66;7751326;18;20026;-71
2023/05/05 03:14:42;;;;;;;6.25;5.75;;;;;;;13.02;80.81;100997.50;7794245;18;20002;-71
2023/05/05 03:17:10;;;;;;;7.57;6.88;;;;;;;12.96;82.15;100998.69;7792491;18;19998;-71
2023/05/05 03:19:40;;;;;;;6.82;6.22;;;;;;;12.84;83.38;100992.31;7791706;18;20002;-71
2023/05/05 03:22:07;;;;;;;6.32;5.72;;;;;;;13.00;83.77;101013.38;7792288;18;19994;-72
2023/05/05 03:24:34;;;;;;;6.63;6.03;;;;;;;12.81;83.85;100989.88;7791381;18;20002;-71
2023/05/05 03:27:01;;;;;;;7.78;6.20;;;;;;;12.58;84.04;100968.31;7791671;18;20006;-71
2023/05/05 03:29:29;;;;;;;7.22;6.63;;;;;;;12.46;84.47;100960.25;7790715;18;20002;-71
2023/05/05 03:31:57;;;;;;;7.25;6.55;;;;;;;12.69;85.40;101009.84;7750141;18;20026;-70
2023/05/05 03:34:24;;;;;;;9.55;6.50;;;;;;;12.45;85.40;100971.72;7749198;18;20072;-70
2023/05/05 03:36:51;;;;;;;8.38;6.72;;;;;;;12.33;86.01;100966.22;7791125;18;20002;-71
2023/05/05 03:39:17;;;;;;;7.82;7.10;;;;;;;12.51;86.00;100997.72;7789555;18;20004;-71
2023/05/05 03:41:44;;;;;;;8.02;7.22;;;;;;;12.32;86.72;100985.56;7789507;18;19998;-70
2023/05/05 03:44:10;;;;;;;7.40;6.68;;;;;;;12.43;87.48;100999.91;7725994;18;20014;-70
2023/05/05 03:46:37;;;;;;;7.43;6.75;;;;;;;12.42;87.92;101008.75;7749108;18;20060;-70
2023/05/05 03:49:03;;;;;;;7.53;6.70;;;;;;;12.23;88.19;100980.81;7748041;18;20484;-70
2023/05/05 03:51:30;;;;;;;5.97;5.63;;;;;;;12.21;88.83;100980.03;7790183;18;19990;-70
2023/05/05 03:53:56;;;;;;;6.65;6.20;;;;;;;12.09;88.93;100967.56;7788933;18;20002;-71
2023/05/05 03:56:23;;;;;;;6.43;5.93;;;;;;;12.36;89.75;101012.56;7787079;18;20065;-71
2023/05/05 03:58:52;;;;;;;7.25;6.55;;;;;;;12.37;89.96;101006.38;7748810;18;20001;-71
2023/05/05 04:01:19;;;;;;;8.57;6.68;;;;;;;12.41;89.39;101012.28;7790221;18;20013;-70
2023/05/05 04:03:46;;;;;;;7.80;7.10;;;;;;;12.35;89.49;100997.72;7747175;18;20053;-70
2023/05/05 04:06:12;;;;;;;7.05;6.45;;;;;;;12.37;89.64;101001.94;7748979;18;20006;-70
2023/05/05 04:08:39;;;;;;;7.43;6.82;;;;;;;12.41;89.62;100996.50;7788368;18;20068;-72
2023/05/05 04:11:05;;;;;;;6.75;6.25;;;;;;;12.50;89.20;101001.28;7789459;18;20073;-72
2023/05/05 04:13:32;;;;;;;8.00;7.18;;;;;;;11.74;88.80;100880.84;7788428;18;19994;-72
2023/05/05 04:15:58;;;;;;;6.90;6.30;;;;;;;12.27;89.38;100952.56;7790177;18;20001;-71
2023/05/05 04:18:25;;;;;;;7.43;6.72;;;;;;;12.44;89.43;100989.28;7789017;18;20010;-71
2023/05/05 04:20:51;;;;;;;6.95;6.35;;;;;;;12.19;89.43;100937.19;7747693;18;20072;-71
2023/05/05 04:23:18;;;;;;;7.18;6.55;;;;;;;12.42;88.64;100978.00;7788319;18;20057;-71
2023/05/05 04:25:45;;;;;;;7.93;6.97;;;;;;;12.63;88.61;101006.69;7789401;18;20002;-71
2023/05/05 04:28:11;;;;;;;7.60;6.90;;;;;;;12.35;89.13;100976.66;7789591;18;19994;-71
2023/05/05 04:30:38;;;;;;;7.18;6.57;;;;;;;12.13;89.73;100929.63;7788861;18;20061;-71
2023/05/05 04:33:05;;;;;;;7.75;6.90;;;;;;;12.69;89.45;101014.25;7789759;18;20049;-73
2023/05/05 04:35:31;;;;;;;7.53;6.75;;;;;;;12.36;90.29;100965.19;7789594;18;20341;-71
2023/05/05 04:37:58;;;;;;;7.82;7.13;;;;;;;12.65;90.74;101005.69;7790056;18;20632;-73
2023/05/05 04:40:25;;;;;;;10.18;6.03;;;;;;;12.96;90.47;101012.69;7789868;18;20020;-71
2023/05/05 04:42:54;;;;;;;7.18;6.57;;;;;;;12.93;89.68;100993.59;7790418;18;19994;-71
2023/05/05 04:45:20;;;;;;;7.00;6.45;;;;;;;12.58;88.68;100933.25;7790587;18;20518;-71
2023/05/05 04:47:47;;;;;;;7.18;6.57;;;;;;;13.00;88.91;101002.00;7790568;18;20578;-71
2023/05/05 04:50:15;;;;;;;6.43;5.93;;;;;;;12.62;88.84;100953.19;7789613;18;20072;-74
2023/05/05 04:52:41;;;;;;;10.50;7.03;;;;;;;12.15;89.39;100862.00;7789156;18;20049;-71
2023/05/05 04:55:09;;;;;;;7.25;6.72;;;;;;;12.78;88.89;100977.72;7789724;18;20138;-71
2023/05/05 04:57:35;;;;;;;7.40;6.57;;;;;;;12.49;88.35;100915.34;7786475;18;20526;-70
2023/05/05 05:00:04;;;;;;;7.55;6.93;;;;;;;13.09;88.73;100997.03;7788971;18;19994;-71
2023/05/05 05:02:30;;;;;;;9.68;6.38;;;;;;;12.53;87.69;100878.22;7789870;18;19994;-70
2023/05/05 05:04:57;;;;;;;7.97;6.53;;;;;;;13.25;87.45;100951.31;7790760;18;20379;-71
2023/05/05 05:07:23;;;;;;;7.45;6.75;;;;;;;13.90;86.56;101006.34;7788316;18;20358;-71
2023/05/05 05:09:49;;;;;;;7.63;6.78;;;;;;;13.95;85.42;100977.88;7790433;18;20457;-73
2023/05/05 05:12:16;;;;;;;7.38;6.43;;;;;;;14.32;84.48;100999.34;7788786;18;20057;-72
2023/05/05 05:14:42;;;;;;;7.43;6.82;;;;;;;14.43;83.37;101012.72;7790979;18;20306;-72
2023/05/05 05:17:10;;;;;;;9.85;6.95;;;;;;;13.85;82.49;100914.31;7790308;18;19998;-72
2023/05/05 05:19:36;;;;;;;6.97;6.28;;;;;;;14.05;82.95;100957.91;7789273;18;19994;-72
2023/05/05 05:22:03;;;;;;;7.63;6.93;;;;;;;14.67;82.96;101030.63;7748398;18;20451;-72
2023/05/05 05:24:29;;;;;;;6.50;5.90;;;;;;;14.86;82.47;101049.63;7790026;18;20002;-75
2023/05/05 05:26:56;;;;;;;7.47;6.85;;;;;;;14.98;81.78;101029.50;7789103;18;20053;-72
2023/05/05 05:29:22;;;;;;;7.45;6.72;;;;;;;15.12;81.30;101032.06;7789864;18;20002;-72
2023/05/05 05:31:49;;;;;;;7.88;7.18;;;;;;;15.22;81.09;101034.13;7788545;18;20096;-72
2023/05/05 05:34:15;;;;;;;7.10;6.50;;;;;;;15.36;80.40;101032.25;7788211;18;20002;-72
2023/05/05 05:36:41;;;;;;;9.82;6.38;;;;;;;15.21;79.96;100984.81;7789417;18;19993;-71
2023/05/05 05:39:08;;;;;;;7.85;6.75;;;;;;;15.83;79.34;101029.13;7789126;18;19994;-71
2023/05/05 05:41:34;;;;;;;7.72;7.07;;;;;;;15.81;78.00;101025.75;7748689;18;19998;-71
2023/05/05 05:44:01;;;;;;;6.80;6.22;;;;;;;15.98;78.69;101030.72;7788519;18;19994;-71
2023/05/05 05:46:27;;;;;;;7.03;6.43;;;;;;;15.77;77.88;100981.94;7788634;18;20009;-73
2023/05/05 05:48:54;;;;;;;7.50;6.90;;;;;;;16.12;77.18;101024.47;7788623;18;20006;-71
2023/05/05 05:51:20;;;;;;;7.38;6.88;;;;;;;16.17;77.00;101030.28;7748831;18;20518;-72
2023/05/05 05:53:47;;;;;;;7.88;7.07;;;;;;;15.94;77.67;100998.34;7788470;18;19998;-71
2023/05/05 05:56:14;;;;;;;6.40;6.00;;;;;;;15.98;77.37;100998.97;7749386;18;20002;-71
2023/05/05 05:58:41;;;;;;;9.95;7.55;;;;;;;16.29;77.24;101036.50;7769028;18;20589;-71
2023/05/05 06:01:07;;;;;;;7.82;7.13;;;;;;;16.11;77.03;101018.31;7787570;18;20005;-70
2023/05/05 06:03:34;;;;;;;8.07;7.38;;;;;;;16.01;77.50;101027.00;7817705;18;20008;-71
2023/05/05 06:06:00;;;;;;;7.18;6.57;;;;;;;16.24;78.85;101071.28;7837280;18;20021;-71
2023/05/05 06:08:27;;;;;;;13.93;7.07;;;;;;;15.90;80.45;101030.44;7809327;18;20613;-71
2023/05/05 06:10:53;;;;;;;7.93;6.95;;;;;;;16.03;81.97;101056.88;7789397;18;20010;-71
2023/05/05 06:13:20;;;;;;;7.85;7.22;;;;;;;15.78;82.05;101018.88;7813497;18;20006;-71
2023/05/05 06:15:47;;;;;;;7.97;7.28;;;;;;;15.99;82.76;101042.16;7833771;18;20021;-71
2023/05/05 06:18:13;;;;;;;7.75;6.55;;;;;;;16.46;83.63;101112.16;7813982;18;20009;-72
2023/05/05 06:20:39;;;;;;;11.23;8.40;;;;;;;16.44;83.47;101106.13;7786012;18;20066;-70
2023/05/05 06:23:06;;;;;;;9.07;7.55;;;;;;;16.41;84.23;101066.59;7808861;18;20030;-72
2023/05/05 06:25:32;;;;;;;8.18;7.38;;;;;;;17.03;83.28;101119.56;7837282;18;20064;-70
2023/05/05 06:27:59;;;;;;;8.43;7.65;;;;;;;16.92;82.47;101069.13;7826225;18;20329;-72
2023/05/05 06:30:26;;;;;;;8.52;7.82;;;;;;;17.21;81.39;101048.41;7788684;18;20002;-72
2023/05/05 06:32:53;;;;;;;8.57;7.70;;;;;;;17.46;79.06;101018.25;7806020;18;20593;-70
2023/05/05 06:35:20;;;;;;;9.05;8.13;;;;;;;18.06;75.98;101053.47;7839243;18;20012;-70
2023/05/05 06:37:47;;;;;;;12.25;11.25;;;;;;;17.46;74.25;100937.75;7681973;18;20317;-70
2023/05/05 06:40:13;;;;;;;8.82;7.93;;;;;;;17.90;73.30;100992.75;7790340;18;20569;-70
2023/05/05 06:42:40;;;;;;;14.80;8.80;;;;;;;17.60;73.02;101009.22;7788748;18;20006;-70
2023/05/05 06:45:07;;;;;;;9.65;8.60;;;;;;;17.46;74.75;101044.78;7791433;18;20004;-71
2023/05/05 06:47:34;;;;;;;9.43;8.48;;;;;;;16.63;75.01;100925.47;7800520;18;20005;-70
2023/05/05 06:50:01;;;;;;;11.35;9.00;;;;;;;17.62;75.15;101073.66;7838362;18;20845;-70
2023/05/05 06:52:27;;;;;;;8.75;7.95;;;;;;;17.74;75.30;101071.88;7830181;18;20064;-71
2023/05/05 06:54:54;;;;;;;9.15;8.35;;;;;;;17.62;75.43;101064.81;7791410;18;20036;-70
2023/05/05 06:57:22;;;;;;;18.15;8.85;;;;;;;17.27;75.30;101010.81;7795652;18;19994;-70
2023/05/05 06:59:49;;;;;;;10.15;8.18;;;;;;;17.80;76.29;101111.22;7835129;18;20013;-70
2023/05/05 07:02:15;;;;;;;10.13;8.88;;;;;;;18.22;75.69;101110.69;7833518;18;20000;-72
2023/05/05 07:04:42;;;;;;;8.88;8.07;;;;;;;18.19;73.66;101053.34;7790069;18;20356;-70
2023/05/05 07:07:09;;;;;;;9.85;8.65;;;;;;;18.66;72.48;101093.06;7791143;18;20005;-71
2023/05/05 07:09:35;;;;;;;9.18;8.30;;;;;;;18.76;71.61;101075.38;7797065;18;20006;-71
2023/05/05 07:12:02;;;;;;;10.45;9.10;;;;;;;18.64;72.46;101090.53;7838872;18;19998;-70
2023/05/05 07:14:28;;;;;;;18.33;9.95;;;;;;;18.21;72.31;101067.34;7791121;18;20064;-71
2023/05/05 07:16:55;;;;;;;20.17;9.90;;;;;;;18.18;73.35;101062.31;7789552;18;20009;-71
2023/05/05 07:19:22;;;;;;;11.32;8.98;;;;;;;18.58;72.63;101096.31;7789397;18;20565;-71
2023/05/05 07:21:48;;;;;;;10.82;9.10;;;;;;;18.31;71.36;101015.19;7789808;18;20009;-71
2023/05/05 07:24:15;;;;;;;9.93;8.85;;;;;;;18.02;73.05;101069.75;7789992;18;20361;-71
2023/05/05 07:26:41;;;;;;;11.38;9.07;;;;;;;18.53;73.63;101114.47;7788341;18;20069;-70
2023/05/05 07:29:08;;;;;;;9.32;8.45;;;;;;;18.60;73.28;101110.38;7789210;18;20018;-71
2023/05/05 07:31:34;;;;;;;8.88;7.85;;;;;;;18.86;72.74;101113.63;7788575;18;20073;-71
2023/05/05 07:34:01;;;;;;;10.82;8.93;;;;;;;18.73;69.91;101057.88;7789182;18;20057;-71
2023/05/05 07:36:27;;;;;;;9.68;8.68;;;;;;;18.66;68.92;101037.22;7789973;18;19994;-71
2023/05/05 07:38:54;;;;;;;9.05;8.15;;;;;;;18.64;69.55;101071.94;7787926;18;20014;-71
2023/05/05 07:41:20;;;;;;;9.05;8.18;;;;;;;17.47;72.23;100971.31;7789199;18;20009;-71
2023/05/05 07:43:47;;;;;;;9.68;8.65;;;;;;;18.00;71.57;101035.38;7789607;18;20548;-70
2023/05/05 07:46:13;;;;;;;11.13;8.40;;;;;;;18.26;72.11;101088.25;7790415;18;20022;-70
2023/05/05 07:48:40;;;;;;;10.32;9.25;;;;;;;18.89;71.04;101107.19;7789284;18;20050;-71
2023/05/05 07:51:07;;;;;;;11.73;8.50;;;;;;;19.20;69.11;101068.28;7790593;18;19998;-70
2023/05/05 07:53:34;;;;;;;11.95;8.63;;;;;;;19.37;67.43;101053.59;7788316;18;20435;-71
2023/05/05 07:56:00;;;;;;;9.57;8.57;;;;;;;19.72;67.41;101052.44;7790283;18;19990;-69
2023/05/05 07:58:26;;;;;;;12.05;8.80;;;;;;;19.83;65.61;101017.75;7788425;18;20103;-71
2023/05/05 08:00:53;;;;;;;10.55;8.90;;;;;;;19.33;66.80;101041.50;7788527;18;20000;-71
2023/05/05 08:03:22;;;;;;;10.57;8.60;;;;;;;19.41;67.50;101057.69;7788959;18;20030;-72
2023/05/05 08:05:54;;;;;;;11.25;9.20;;;;;;;19.04;67.82;101054.56;7790924;18;20010;-71
2023/05/05 08:08:25;;;;;;;13.45;9.23;;;;;;;19.04;67.87;101019.97;7789414;18;19998;-72
2023/05/05 08:10:52;;;;;;;10.48;8.30;;;;;;;19.13;68.06;101077.75;7788628;18;20006;-71
2023/05/05 08:13:18;;;;;;;11.00;9.32;;;;;;;18.85;68.78;101066.72;7790942;18;20556;-71
2023/05/05 08:15:45;;;;;;;11.98;8.90;;;;;;;18.29;71.74;101091.50;7792472;18;19994;-72
2023/05/05 08:18:13;;;;;;;12.50;9.20;;;;;;;18.37;72.38;101104.19;7792785;18;20017;-71
2023/05/05 08:20:40;;;;;;;12.60;8.75;;;;;;;18.98;70.86;101103.78;7790004;18;20005;-71
2023/05/05 08:23:06;;;;;;;10.55;9.45;;;;;;;18.60;70.99;101054.53;7790539;18;20013;-73
2023/05/05 08:25:33;;;;;;;13.57;8.73;;;;;;;19.55;69.30;101106.28;7791482;18;20004;-72
2023/05/05 08:27:59;;;;;;;12.95;8.90;;;;;;;19.92;67.55;101080.03;7790025;18;20008;-70
2023/05/05 08:30:26;;;;;;;14.50;9.85;;;;;;;20.10;66.25;101042.97;7792009;18;20026;-71
2023/05/05 08:32:52;;;;;;;10.82;9.07;;;;;;;20.19;66.40;101057.34;7791179;18;20053;-71
2023/05/05 08:35:19;;;;;;;12.60;8.43;;;;;;;20.36;64.32;101018.53;7791839;18;20058;-71
2023/05/05 08:37:45;;;;;;;12.38;8.95;;;;;;;19.67;65.67;101006.72;7791891;18;19998;-71
2023/05/05 08:40:13;;;;;;;11.20;9.07;;;;;;;19.88;64.68;100980.91;7790127;18;20005;-71
2023/05/05 08:42:40;;;;;;;9.68;8.27;;;;;;;19.73;65.41;101016.88;7789823;18;20006;-71
2023/05/05 08:45:08;;;;;;;10.10;9.27;;;;;;;20.54;63.49;101019.56;7784726;18;20677;-70
2023/05/05 08:47:37;;;;;;;9.85;8.80;;;;;;;20.35;63.20;101014.16;7790119;18;20064;-71
2023/05/05 08:50:05;;;;;;;9.52;8.52;;;;;;;20.27;63.57;101031.69;7789660;18;20002;-72
2023/05/05 08:52:43;;;;;;;9.60;8.63;;;;;;;20.66;62.34;100999.81;7787512;18;20013;-71
2023/05/05 08:55:32;;;;;;;11.82;9.40;;;;;;;21.22;62.12;101051.66;7789728;18;20006;-71
2023/05/05 08:58:11;;;;;;;8.93;8.07;;;;;;;21.92;60.41;101020.22;7788154;18;20069;-71
2023/05/05 09:00:41;;;;;;;10.60;7.78;;;;;;;22.08;57.98;100903.84;7788038;18;20061;-71
2023/05/05 09:03:08;;;;;;;7.80;7.05;;;;;;;21.92;56.40;100888.44;7789037;18;20012;-71
2023/05/05 09:05:35;;;;;;;8.57;7.50;;;;;;;21.04;57.02;100846.03;7789663;18;20008;-71
2023/05/05 09:08:04;;;;;;;7.32;6.32;;;;;;;21.80;56.50;100909.19;7787354;18;20257;-71
2023/05/05 09:10:31;;;;;;;7.65;6.97;;;;;;;20.33;56.69;100801.09;7790054;18;20061;-71
2023/05/05 09:12:57;;;;;;;8.05;7.05;;;;;;;20.77;57.75;100918.84;7790414;18;20002;-71
2023/05/05 09:15:27;;;;;;;7.13;6.57;;;;;;;20.57;59.03;100915.28;7791091;18;20423;-72
2023/05/05 09:17:56;;;;;;;7.75;7.03;;;;;;;20.89;58.10;100976.41;7790618;18;20002;-71
2023/05/05 09:20:23;;;;;;;8.55;7.85;;;;;;;21.28;57.21;100930.97;7792852;18;20392;-71
2023/05/05 09:22:50;;;;;;;6.20;5.80;;;;;;;21.39;54.54;100873.91;7790867;18;19990;-71
2023/05/05 09:25:17;;;;;;;6.32;5.88;;;;;;;20.78;54.86;100829.81;7792560;18;20005;-71
2023/05/05 09:27:45;;;;;;;6.70;6.28;;;;;;;20.99;56.27;100906.16;7787297;18;20009;-71
2023/05/05 09:30:25;;;;;;;5.95;5.47;;;;;;;21.18;55.94;100927.47;7791574;18;20458;-71
2023/05/05 09:32:53;;;;;;;6.07;5.78;;;;;;;20.91;55.61;100893.56;7790897;18;20435;-72
2023/05/05 09:35:22;;;;;;;6.55;5.95;;;;;;;20.63;56.26;100868.59;7790913;18;20004;-71
2023/05/05 09:37:49;;;;;;;6.65;6.15;;;;;;;21.44;56.19;100970.44;7790894;18;20105;-71
2023/05/05 09:40:19;;;;;;;7.35;5.88;;;;;;;22.14;56.01;101007.47;7792403;18;20021;-71
2023/05/05 09:42:46;;;;;;;6.60;6.18;;;;;;;22.05;55.21;100947.75;7790435;18;19997;-72
2023/05/05 09:45:18;;;;;;;8.10;7.32;;;;;;;21.92;54.40;100936.53;7792287;18;20570;-71
2023/05/05 09:47:45;;;;;;;;;;;;;;;22.11;54.85;100951.66;7791006;18;20059;-72
2023/05/05 09:50:20;;;;;;;7.10;6.50;;;;;;;21.87;53.73;100896.06;7790128;18;19913;-71
2023/05/05 09:52:53;;;;;;;6.70;6.20;;;;;;;22.21;53.17;100882.94;7790285;18;19993;-71
2023/05/05 09:55:19;;;;;;;6.93;6.32;;;;;;;22.50;53.02;100889.91;7789956;18;20014;-73
2023/05/05 09:57:46;;;;;;;6.95;6.43;;;;;;;22.00;52.93;100877.84;7787406;18;20442;-71
2023/05/05 10:00:13;;;;;;;7.15;6.45;;;;;;;22.16;53.66;100951.19;7790430;18;20013;-71
2023/05/05 10:02:39;;;;;;;7.57;6.93;;;;;;;22.54;53.15;100930.56;7787659;18;20053;-72
2023/05/05 10:05:11;;;;;;;7.13;6.50;;;;;;;21.95;52.54;100815.16;7793822;18;20002;-72
2023/05/05 10:07:40;;;;;;;7.03;6.45;;;;;;;22.89;52.20;100929.69;7792925;18;20153;-70
2023/05/05 10:10:12;;;;;;;6.90;6.32;;;;;;;23.25;51.36;100913.59;7792505;18;20006;-72
2023/05/05 10:12:39;;;;;;;7.60;6.97;;;;;;;23.15;51.63;100918.22;7792635;18;19989;-72
2023/05/05 10:15:08;;;;;;;7.15;6.60;;;;;;;23.13;51.60;100918.38;7794023;18;20615;-71
2023/05/05 10:17:37;;;;;;;9.90;6.57;;;;;;;22.65;51.59;100887.53;7793475;18;20017;-71
2023/05/05 10:20:09;;;;;;;6.97;6.47;;;;;;;23.03;53.23;100972.03;7791098;18;20066;-71
2023/05/05 10:22:38;;;;;;;7.18;6.68;;;;;;;22.19;55.16;100949.06;7792577;18;20009;-70
2023/05/05 10:25:14;;;;;;;6.78;6.28;;;;;;;22.28;53.02;100902.75;7793657;18;20091;-71
2023/05/05 10:27:44;;;;;;;7.18;6.53;;;;;;;22.77;52.55;100901.50;7792280;18;20397;-71
2023/05/05 10:30:19;;;;;;;7.00;6.40;;;;;;;22.88;51.77;100899.44;7791797;18;20002;-71
2023/05/05 10:32:48;;;;;;;7.63;6.93;;;;;;;23.15;51.63;100926.25;7789298;18;20014;-72
2023/05/05 10:35:28;;;;;;;7.75;7.05;;;;;;;23.00;51.34;100897.34;7793880;18;20056;-70
2023/05/05 10:37:56;;;;;;;6.88;6.43;;;;;;;23.05;50.50;100899.56;7791883;18;20198;-71
2023/05/05 10:40:23;;;;;;;6.93;6.43;;;;;;;22.54;52.02;100888.63;7790738;18;20529;-72
2023/05/05 10:42:52;;;;;;;6.68;6.28;;;;;;;21.82;53.01;100840.41;7790915;18;20038;-71
2023/05/05 10:46:37;;;;;;;7.57;6.88;;;;;;;22.23;52.42;100906.81;7796476;18;20018;-73
2023/05/05 10:53:20;;;;;;;7.88;6.55;;;;;;;21.43;57.29;101026.66;7673404;18;19993;-72
2023/05/05 10:56:04;;;;;;;6.70;6.25;;;;;;;21.64;59.60;101109.31;7792326;18;20591;-73
2023/05/05 10:58:35;;;;;;;7.05;6.45;;;;;;;21.28;62.55;101136.53;7790706;18;20049;-72
2023/05/05 11:01:34;;;;;;;9.60;6.90;;;;;;;21.34;65.71;101238.41;7792377;18;20033;-71
2023/05/05 11:04:23;;;;;;;8.90;6.45;;;;;;;20.59;68.40;101251.19;7827054;18;20044;-70
2023/05/05 11:07:15;;;;;;;6.15;5.70;;;;;;;19.61;64.73;101129.72;7801086;18;20028;-70
2023/05/05 11:10:00;;;;;;;6.10;5.80;;;;;;;18.59;64.44;101052.00;7798569;18;20056;-71
2023/05/05 11:12:30;;;;;;;7.30;6.68;;;;;;;18.22;68.11;101116.88;7798232;18;19997;-72
2023/05/05 11:15:25;;;;;;;6.38;5.97;;;;;;;17.92;72.45;101175.81;7840902;18;20053;-72
2023/05/05 11:17:53;;;;;;;6.95;6.38;;;;;;;17.62;77.73;101224.94;7799141;18;19997;-71
2023/05/05 11:20:35;;;;;;;6.63;6.15;;;;;;;17.46;82.44;101258.84;7803928;18;19998;-72
2023/05/05 11:23:02;;;;;;;6.43;6.03;;;;;;;17.40;82.63;101259.28;7843282;18;20042;-70
2023/05/05 11:25:40;;;;;;;11.25;7.57;;;;;;;17.36;87.11;101290.50;7843168;18;19994;-70
2023/05/05 11:28:08;;;;;;;6.85;6.30;;;;;;;17.43;90.12;101288.25;7800773;18;20001;-70
2023/05/05 11:30:53;;;;;;;7.32;6.63;;;;;;;16.84;89.73;101206.66;7842183;18;19994;-72
2023/05/05 11:33:30;;;;;;;6.38;5.90;;;;;;;17.12;91.98;101259.47;7840976;18;20006;-71
2023/05/05 11:36:01;;;;;;;6.45;6.05;;;;;;;16.93;92.86;101243.97;7841381;18;19998;-71
2023/05/05 11:38:35;;;;;;;7.10;6.40;;;;;;;16.79;94.92;101229.97;7838887;18;19994;-72
2023/05/05 11:41:11;;;;;;;6.25;5.72;;;;;;;16.31;97.71;101159.94;7841275;18;20064;-72